Time;durP1;ratioP1;P1;durP2;ratioP2;P2;SDS_P1;SDS_P2;PMS_P1;PMS_P2;Temp;Humidity;BMP_temperature;BMP_pressure;BME280_temperature;BME280_humidity;BME280_pressure;Samples;Min_cycle;Max_cycle;Signal;HPM_P1;HPM_P2
2023/07/06 00:01:52;;;;;;;1.88;1.10;;;16.60;99.90;;;;;;5014781;28;20214;-66
2023/07/06 00:04:18;;;;;;;2.08;0.98;;;16.60;99.90;;;;;;5015174;28;20171;-66
2023/07/06 00:06:47;;;;;;;2.25;1.23;;;16.60;99.90;;;;;;5014868;28;20240;-67
2023/07/06 00:09:16;;;;;;;1.40;1.10;;;16.50;99.90;;;;;;5015049;28;20206;-64
2023/07/06 00:11:44;;;;;;;2.22;1.10;;;16.50;99.90;;;;;;5015178;28;20178;-67
2023/07/06 00:14:15;;;;;;;2.28;1.15;;;16.50;99.90;;;;;;5015207;28;20209;-67
2023/07/06 00:16:41;;;;;;;1.73;1.20;;;16.50;99.90;;;;;;5014915;28;20220;-66
2023/07/06 00:19:08;;;;;;;2.10;1.10;;;16.50;99.90;;;;;;5012149;28;20265;-67
2023/07/06 00:21:34;;;;;;;2.33;1.20;;;16.40;99.90;;;;;;5015130;28;20190;-67
2023/07/06 00:24:02;;;;;;;1.98;1.17;;;16.40;99.90;;;;;;5014664;28;20202;-67
2023/07/06 00:26:30;;;;;;;2.42;1.13;;;16.40;99.90;;;;;;5014766;28;20174;-66
2023/07/06 00:28:55;;;;;;;1.77;1.23;;;16.40;99.90;;;;;;5015110;28;20202;-67
2023/07/06 00:31:32;;;;;;;1.27;1.00;;;16.40;99.90;;;;;;5014979;28;20241;-67
2023/07/06 00:34:03;;;;;;;2.20;1.25;;;16.30;99.90;;;;;;5008782;28;20225;-67
2023/07/06 00:36:34;;;;;;;1.98;1.10;;;16.30;99.90;;;;;;5014576;28;20185;-67
2023/07/06 00:39:02;;;;;;;3.50;1.42;;;16.30;99.90;;;;;;5014621;28;20198;-67
2023/07/06 00:41:28;;;;;;;2.63;1.10;;;16.30;99.90;;;;;;5014825;28;20182;-65
2023/07/06 00:43:55;;;;;;;2.22;1.20;;;16.30;99.90;;;;;;5014676;28;20202;-65
2023/07/06 00:46:24;;;;;;;2.75;1.20;;;16.30;99.90;;;;;;5014796;28;20229;-67
2023/07/06 00:48:56;;;;;;;1.50;1.05;;;16.30;99.90;;;;;;5232938;23;21106;-64
2023/07/06 00:51:38;;;;;;;1.88;1.20;;;16.20;99.90;;;;;;5018514;28;20293;-64
2023/07/06 00:54:12;;;;;;;2.70;1.30;;;16.20;99.90;;;;;;5041037;28;20218;-63
2023/07/06 00:56:42;;;;;;;1.45;1.10;;;16.20;99.90;;;;;;5014840;28;20213;-67
2023/07/06 00:59:12;;;;;;;3.20;1.40;;;16.20;99.90;;;;;;5029075;28;20185;-67
2023/07/06 01:01:46;;;;;;;1.80;1.20;;;16.20;99.90;;;;;;5034259;28;20195;-67
2023/07/06 01:04:16;;;;;;;1.75;1.08;;;16.20;99.90;;;;;;5030885;28;20173;-67
2023/07/06 01:06:49;;;;;;;1.73;1.38;;;16.10;99.90;;;;;;5015547;28;20194;-66
2023/07/06 01:09:17;;;;;;;2.00;1.17;;;16.10;99.90;;;;;;5034256;28;20190;-66
2023/07/06 01:11:46;;;;;;;1.80;1.20;;;16.10;99.90;;;;;;5034368;28;20174;-67
2023/07/06 01:14:13;;;;;;;2.03;1.23;;;16.10;99.90;;;;;;5035311;28;20214;-67
2023/07/06 01:17:07;;;;;;;1.77;1.10;;;16.00;99.90;;;;;;5050417;28;20166;-66
2023/07/06 01:19:53;;;;;;;1.83;1.40;;;16.00;99.90;;;;;;5051178;28;20173;-67
2023/07/06 01:22:51;;;;;;;2.40;1.45;;;16.00;99.90;;;;;;5050695;28;20182;-67
2023/07/06 01:25:36;;;;;;;2.10;1.35;;;15.90;99.90;;;;;;5034154;28;20234;-66
2023/07/06 01:28:24;;;;;;;2.15;1.20;;;15.90;99.90;;;;;;5044276;28;20221;-67
2023/07/06 01:30:53;;;;;;;1.73;1.05;;;15.90;99.90;;;;;;5034080;28;20189;-65
2023/07/06 01:33:28;;;;;;;1.73;1.10;;;15.80;99.90;;;;;;5032112;28;20198;-67
2023/07/06 01:35:57;;;;;;;2.55;1.10;;;15.80;99.90;;;;;;5030792;28;20277;-66
2023/07/06 01:38:27;;;;;;;1.92;1.27;;;15.80;99.90;;;;;;5027255;28;20198;-67
2023/07/06 01:40:55;;;;;;;1.58;1.20;;;15.70;99.90;;;;;;5033950;28;20170;-66
2023/07/06 01:43:25;;;;;;;2.42;1.00;;;15.70;99.90;;;;;;5033370;28;20182;-67
2023/07/06 01:45:54;;;;;;;1.52;1.10;;;15.70;99.90;;;;;;5033556;28;20178;-67
2023/07/06 01:48:24;;;;;;;2.13;1.20;;;15.70;99.90;;;;;;5033773;28;20194;-68
2023/07/06 01:51:04;;;;;;;2.45;1.30;;;15.60;99.90;;;;;;5036737;28;20186;-67
2023/07/06 01:53:31;;;;;;;2.88;1.23;;;15.60;99.90;;;;;;5024221;28;20189;-65
2023/07/06 01:56:13;;;;;;;1.80;1.33;;;15.60;99.90;;;;;;5041462;28;20212;-67
2023/07/06 01:58:54;;;;;;;1.63;0.90;;;15.60;99.90;;;;;;5050266;28;20178;-66
2023/07/06 02:01:37;;;;;;;2.22;1.35;;;15.50;99.90;;;;;;5036205;28;20225;-67
2023/07/06 02:04:10;;;;;;;2.33;1.30;;;15.50;99.90;;;;;;5033707;28;20174;-68
2023/07/06 02:06:37;;;;;;;1.63;1.13;;;15.50;99.90;;;;;;5033587;28;20353;-66
2023/07/06 02:09:13;;;;;;;2.03;1.10;;;15.40;99.90;;;;;;5033560;28;20230;-67
2023/07/06 02:11:38;;;;;;;1.40;1.10;;;15.40;99.90;;;;;;5033745;28;20510;-67
2023/07/06 02:14:04;;;;;;;2.67;1.40;;;15.40;99.90;;;;;;5033226;28;20178;-67
2023/07/06 02:16:30;;;;;;;1.90;1.00;;;15.30;99.90;;;;;;5034207;28;20243;-67
2023/07/06 02:18:58;;;;;;;2.38;1.20;;;15.30;99.90;;;;;;5033348;28;20182;-66
2023/07/06 02:21:25;;;;;;;2.10;1.00;;;15.30;99.90;;;;;;5033118;28;20205;-67
2023/07/06 02:23:53;;;;;;;2.58;1.40;;;15.30;99.90;;;;;;5033056;28;20174;-67
2023/07/06 02:26:21;;;;;;;1.60;1.17;;;15.20;99.90;;;;;;5033386;28;20198;-67
2023/07/06 02:28:47;;;;;;;3.55;1.25;;;15.10;99.90;;;;;;5035820;28;20273;-67
2023/07/06 02:31:15;;;;;;;1.55;1.10;;;15.20;99.90;;;;;;5033585;28;20198;-67
2023/07/06 02:33:45;;;;;;;2.08;1.10;;;15.20;99.90;;;;;;5036847;28;20170;-67
2023/07/06 02:36:11;;;;;;;1.67;1.20;;;15.10;99.90;;;;;;5028794;28;20182;-69
2023/07/06 02:38:39;;;;;;;2.72;1.40;;;15.10;99.90;;;;;;5036823;28;20233;-67
2023/07/06 02:41:05;;;;;;;2.72;1.20;;;15.10;99.90;;;;;;5034246;28;20210;-67
2023/07/06 02:43:36;;;;;;;4.40;1.42;;;15.10;99.90;;;;;;5036758;28;20236;-67
2023/07/06 02:46:04;;;;;;;1.77;1.30;;;15.10;99.90;;;;;;5053498;28;20265;-66
2023/07/06 02:48:32;;;;;;;2.72;1.08;;;15.10;99.90;;;;;;5037753;28;20209;-67
2023/07/06 02:50:58;;;;;;;3.45;1.05;;;15.10;99.90;;;;;;5025856;28;20186;-67
2023/07/06 02:53:24;;;;;;;2.25;1.38;;;15.10;99.90;;;;;;5047031;28;20223;-67
2023/07/06 02:55:51;;;;;;;2.28;1.10;;;15.10;99.90;;;;;;5033481;28;20194;-67
2023/07/06 02:58:18;;;;;;;1.73;1.20;;;15.00;99.90;;;;;;5042735;28;20206;-67
2023/07/06 03:00:47;;;;;;;1.98;1.02;;;15.00;99.90;;;;;;5023012;28;20353;-67
2023/07/06 03:03:18;;;;;;;1.77;1.25;;;15.00;99.90;;;;;;5033448;28;20178;-65
2023/07/06 03:05:45;;;;;;;2.60;1.42;;;15.00;99.90;;;;;;5031732;28;20179;-67
2023/07/06 03:08:11;;;;;;;1.80;1.20;;;15.00;99.90;;;;;;5016801;28;20198;-67
2023/07/06 03:10:39;;;;;;;1.40;1.10;;;15.00;99.90;;;;;;5031302;28;20231;-67
2023/07/06 03:13:07;;;;;;;1.23;1.02;;;15.00;99.90;;;;;;5036917;28;20206;-67
2023/07/06 03:15:33;;;;;;;1.90;1.10;;;15.00;99.90;;;;;;5037500;28;20181;-67
2023/07/06 03:17:58;;;;;;;3.25;1.38;;;15.00;99.90;;;;;;5033151;28;20178;-64
2023/07/06 03:20:24;;;;;;;2.97;1.50;;;14.90;99.90;;;;;;5033773;28;20266;-67
2023/07/06 03:22:51;;;;;;;2.47;1.17;;;14.90;99.90;;;;;;5048488;28;20245;-66
2023/07/06 03:25:26;;;;;;;1.60;1.17;;;14.90;99.90;;;;;;5024310;28;20197;-67
2023/07/06 03:27:55;;;;;;;2.70;1.15;;;14.90;99.90;;;;;;5036414;28;20201;-65
2023/07/06 03:30:30;;;;;;;2.55;1.20;;;14.90;99.90;;;;;;5035830;28;20202;-67
2023/07/06 03:32:59;;;;;;;1.85;1.00;;;14.90;99.90;;;;;;5049127;28;20174;-66
2023/07/06 03:35:25;;;;;;;2.53;1.27;;;14.90;99.90;;;;;;5035798;28;20212;-67
2023/07/06 03:37:55;;;;;;;2.83;1.95;;;14.80;99.90;;;;;;5045402;28;20392;-66
2023/07/06 03:40:26;;;;;;;2.65;1.23;;;14.80;99.90;;;;;;5035788;28;20185;-67
2023/07/06 03:42:55;;;;;;;1.90;1.30;;;14.80;99.90;;;;;;5032403;28;20189;-66
2023/07/06 03:45:24;;;;;;;1.77;1.52;;;14.80;99.90;;;;;;5031791;28;20240;-66
2023/07/06 03:47:52;;;;;;;4.07;1.73;;;14.80;99.90;;;;;;5024628;28;20297;-64
2023/07/06 03:50:22;;;;;;;1.80;1.40;;;14.80;99.90;;;;;;5034974;28;20217;-67
2023/07/06 03:52:48;;;;;;;1.85;1.30;;;14.80;99.90;;;;;;5035566;28;20255;-67
2023/07/06 03:55:20;;;;;;;1.20;1.10;;;14.80;99.90;;;;;;5031594;28;20177;-66
2023/07/06 03:57:46;;;;;;;2.33;1.73;;;14.80;99.90;;;;;;5027167;28;20411;-67
2023/07/06 04:00:20;;;;;;;42.10;28.02;;;14.80;99.90;;;;;;5047699;28;20170;-65
2023/07/06 04:02:51;;;;;;;14.32;10.13;;;14.80;99.90;;;;;;5035165;28;20229;-66
2023/07/06 04:05:32;;;;;;;7.80;6.25;;;14.80;99.90;;;;;;5047261;28;20197;-67
2023/07/06 04:08:06;;;;;;;6.07;4.50;;;14.80;99.90;;;;;;5037032;28;20304;-65
2023/07/06 04:10:35;;;;;;;3.40;2.42;;;14.80;99.90;;;;;;5029191;28;20178;-67
2023/07/06 04:13:04;;;;;;;2.60;1.98;;;14.80;99.90;;;;;;5017230;28;20195;-63
2023/07/06 04:15:31;;;;;;;3.70;2.10;;;14.80;99.90;;;;;;5051774;28;20203;-65
2023/07/06 04:17:58;;;;;;;2.30;1.40;;;14.80;99.90;;;;;;5034836;28;20201;-67
2023/07/06 04:20:34;;;;;;;5.10;1.88;;;14.80;99.90;;;;;;5034225;28;20184;-66
2023/07/06 04:23:00;;;;;;;2.72;1.40;;;14.80;99.90;;;;;;5031160;28;20183;-66
2023/07/06 04:25:30;;;;;;;1.98;1.50;;;14.90;99.90;;;;;;5027538;28;20186;-67
2023/07/06 04:28:05;;;;;;;1.52;1.20;;;14.90;99.90;;;;;;5018138;28;20190;-68
2023/07/06 04:30:35;;;;;;;2.47;1.50;;;14.90;99.90;;;;;;5034284;28;20184;-67
2023/07/06 04:33:01;;;;;;;1.98;1.50;;;15.00;99.90;;;;;;5025601;28;20175;-68
2023/07/06 04:35:31;;;;;;;2.47;1.35;;;15.00;99.90;;;;;;5034583;28;20192;-68
2023/07/06 04:37:59;;;;;;;1.83;1.13;;;15.00;99.90;;;;;;5034691;28;20170;-68
2023/07/06 04:40:30;;;;;;;2.53;1.08;;;15.00;99.90;;;;;;5038836;28;20343;-66
2023/07/06 04:42:56;;;;;;;1.35;1.13;;;15.10;99.90;;;;;;5034385;28;20197;-66
2023/07/06 04:45:26;;;;;;;2.17;1.30;;;15.10;99.90;;;;;;5035369;28;20198;-68
2023/07/06 04:48:00;;;;;;;2.30;1.70;;;15.10;99.90;;;;;;5034595;28;20288;-67
2023/07/06 04:50:28;;;;;;;2.70;1.25;;;15.20;99.90;;;;;;5034583;28;20213;-65
2023/07/06 04:52:58;;;;;;;1.63;1.30;;;15.20;99.90;;;;;;5034349;28;20307;-67
2023/07/06 04:55:29;;;;;;;3.05;1.80;;;15.30;99.90;;;;;;5034613;28;20248;-66
2023/07/06 04:57:57;;;;;;;2.10;1.42;;;15.20;99.90;;;;;;5034498;28;20185;-65
2023/07/06 05:00:29;;;;;;;2.83;1.20;;;15.30;99.90;;;;;;5034608;28;20188;-65
2023/07/06 05:03:00;;;;;;;1.67;1.08;;;15.30;99.90;;;;;;5031195;28;20190;-66
2023/07/06 05:05:31;;;;;;;1.70;1.10;;;15.30;99.90;;;;;;5040152;28;20185;-67
2023/07/06 05:07:57;;;;;;;3.40;1.33;;;15.30;99.90;;;;;;5034244;28;20190;-66
2023/07/06 05:10:25;;;;;;;1.60;1.20;;;15.40;99.90;;;;;;5034209;28;20170;-67
2023/07/06 05:12:52;;;;;;;1.38;0.95;;;15.40;99.90;;;;;;5034820;28;20189;-68
2023/07/06 05:15:18;;;;;;;2.05;1.10;;;15.40;99.90;;;;;;5034120;28;20170;-67
2023/07/06 05:17:45;;;;;;;1.52;0.95;;;15.50;99.90;;;;;;5034313;28;20213;-68
2023/07/06 05:20:15;;;;;;;2.88;1.25;;;15.50;99.90;;;;;;5034302;28;20182;-67
2023/07/06 05:22:42;;;;;;;2.67;1.08;;;15.50;99.90;;;;;;5023887;28;20209;-65
2023/07/06 05:25:09;;;;;;;1.88;1.05;;;15.60;99.90;;;;;;5029409;28;20182;-67
2023/07/06 05:27:34;;;;;;;2.92;1.40;;;15.60;99.90;;;;;;5034069;28;20201;-67
2023/07/06 05:30:00;;;;;;;1.08;0.98;;;15.70;99.90;;;;;;5034637;28;20174;-66
2023/07/06 05:32:28;;;;;;;3.03;1.00;;;15.70;99.90;;;;;;5030552;28;20194;-68
2023/07/06 05:34:56;;;;;;;1.88;1.00;;;15.80;99.90;;;;;;5032992;28;20178;-67
2023/07/06 05:37:24;;;;;;;1.75;0.90;;;15.80;99.90;;;;;;5033724;28;20170;-67
2023/07/06 05:39:52;;;;;;;2.88;1.17;;;15.90;99.90;;;;;;5041366;28;20189;-67
2023/07/06 05:42:20;;;;;;;1.77;1.00;;;15.90;99.90;;;;;;5033666;28;20243;-67
2023/07/06 05:44:46;;;;;;;2.45;1.23;;;16.00;99.90;;;;;;5033457;28;20189;-66
2023/07/06 05:47:15;;;;;;;2.72;1.17;;;16.10;99.90;;;;;;5050563;28;20281;-67
2023/07/06 05:49:40;;;;;;;1.67;1.13;;;16.10;99.90;;;;;;5030196;28;20209;-67
2023/07/06 05:52:06;;;;;;;1.05;0.88;;;16.20;99.90;;;;;;5023507;28;20174;-67
2023/07/06 05:54:32;;;;;;;2.00;0.93;;;16.20;99.90;;;;;;5033709;28;20198;-67
2023/07/06 05:57:02;;;;;;;1.17;0.85;;;16.30;99.90;;;;;;5030215;28;20171;-67
2023/07/06 05:59:29;;;;;;;3.63;1.08;;;16.30;99.90;;;;;;5033612;28;20504;-67
2023/07/06 06:01:59;;;;;;;2.28;1.10;;;16.30;99.90;;;;;;5033211;28;20233;-67
2023/07/06 06:04:26;;;;;;;1.70;0.82;;;16.40;99.90;;;;;;5037054;28;20205;-67
2023/07/06 06:06:55;;;;;;;1.60;0.90;;;16.40;99.90;;;;;;5035179;28;20194;-68
2023/07/06 06:09:22;;;;;;;1.23;0.98;;;16.50;99.90;;;;;;5036808;28;20202;-63
2023/07/06 06:11:50;;;;;;;1.88;1.17;;;16.50;99.90;;;;;;5034249;28;20269;-62
2023/07/06 06:14:17;;;;;;;1.30;0.95;;;16.50;99.90;;;;;;5054031;28;20235;-68
2023/07/06 06:16:43;;;;;;;2.17;1.00;;;16.60;99.90;;;;;;5036122;28;20272;-67
2023/07/06 06:19:09;;;;;;;3.13;1.08;;;16.60;99.90;;;;;;5036636;28;20273;-67
2023/07/06 06:21:35;;;;;;;3.80;0.93;;;16.70;99.90;;;;;;5030424;28;20194;-65
2023/07/06 06:24:08;;;;;;;1.65;1.00;;;16.80;99.90;;;;;;5037256;28;20182;-68
2023/07/06 06:26:34;;;;;;;1.95;0.93;;;16.80;99.90;;;;;;5036337;28;20206;-65
2023/07/06 06:29:00;;;;;;;1.42;1.00;;;16.90;99.90;;;;;;5034538;28;20199;-64
2023/07/06 06:31:27;;;;;;;2.88;1.00;;;16.90;99.90;;;;;;5033562;28;20212;-68
2023/07/06 06:33:53;;;;;;;2.08;0.90;;;17.00;99.90;;;;;;5036996;28;20178;-67
2023/07/06 06:36:22;;;;;;;1.35;0.90;;;17.00;99.90;;;;;;5033261;28;20178;-67
2023/07/06 06:38:51;;;;;;;4.47;2.40;;;17.00;99.90;;;;;;5020372;28;20185;-67
2023/07/06 06:41:21;;;;;;;2.50;1.40;;;17.10;99.90;;;;;;5036519;28;20240;-67
2023/07/06 06:43:49;;;;;;;2.17;1.40;;;17.20;99.90;;;;;;5034981;28;20185;-67
2023/07/06 06:46:17;;;;;;;2.15;1.13;;;17.20;99.90;;;;;;5045653;28;20178;-67
2023/07/06 06:48:43;;;;;;;1.45;0.98;;;17.30;99.90;;;;;;5034809;28;20292;-68
2023/07/06 06:51:11;;;;;;;1.10;0.80;;;17.30;99.90;;;;;;5036274;28;20261;-66
2023/07/06 06:53:43;;;;;;;1.90;1.02;;;17.40;99.90;;;;;;5032855;28;20232;-67
2023/07/06 06:56:11;;;;;;;2.80;1.00;;;17.40;99.90;;;;;;5035768;28;20178;-67
2023/07/06 06:58:37;;;;;;;5.20;1.05;;;17.50;99.90;;;;;;5033075;28;20233;-67
2023/07/06 07:01:07;;;;;;;1.73;0.93;;;17.50;99.90;;;;;;5051101;28;20229;-68
2023/07/06 07:03:35;;;;;;;1.58;0.90;;;17.60;99.90;;;;;;5036281;28;20198;-66
2023/07/06 07:06:11;;;;;;;1.50;0.82;;;17.60;99.90;;;;;;5035826;28;20174;-66
2023/07/06 07:08:49;;;;;;;1.45;0.70;;;17.70;99.90;;;;;;5016780;28;20209;-67
2023/07/06 07:11:19;;;;;;;2.03;0.80;;;17.70;99.90;;;;;;5022635;28;20324;-67
2023/07/06 07:13:47;;;;;;;2.50;1.00;;;17.80;99.90;;;;;;5036091;28;20331;-67
2023/07/06 07:16:14;;;;;;;2.03;0.90;;;17.90;99.90;;;;;;5036104;28;20185;-67
2023/07/06 07:18:45;;;;;;;1.10;0.90;;;17.90;99.90;;;;;;5034408;28;20378;-67
2023/07/06 07:21:12;;;;;;;1.00;0.73;;;18.00;99.90;;;;;;5052156;28;20205;-68
2023/07/06 07:23:49;;;;;;;2.20;1.00;;;18.00;99.90;;;;;;5039112;28;20202;-67
2023/07/06 07:26:20;;;;;;;2.35;0.90;;;18.10;99.90;;;;;;5020533;28;20245;-67
2023/07/06 07:28:51;;;;;;;2.13;0.85;;;18.10;99.90;;;;;;5032979;28;20264;-68
2023/07/06 07:31:19;;;;;;;1.73;0.90;;;18.20;99.90;;;;;;5043247;28;20185;-67
2023/07/06 07:33:49;;;;;;;1.55;0.70;;;18.20;99.90;;;;;;5036208;28;20177;-68
2023/07/06 07:36:19;;;;;;;3.50;1.20;;;18.30;99.90;;;;;;5039743;28;20201;-67
2023/07/06 07:38:46;;;;;;;1.75;1.20;;;18.30;99.90;;;;;;5043418;28;20182;-66
2023/07/06 07:41:19;;;;;;;2.30;1.00;;;18.40;99.90;;;;;;5035639;28;20202;-67
2023/07/06 07:43:48;;;;;;;2.55;0.93;;;18.40;99.90;;;;;;5043078;28;20261;-67
2023/07/06 07:46:16;;;;;;;1.52;0.85;;;18.40;99.90;;;;;;5016301;28;20199;-67
2023/07/06 07:48:49;;;;;;;1.10;0.73;;;18.50;99.90;;;;;;5031977;28;20244;-67
2023/07/06 07:51:24;;;;;;;1.45;0.80;;;18.50;99.90;;;;;;5034188;28;20198;-67
2023/07/06 07:53:52;;;;;;;2.75;0.82;;;18.50;99.90;;;;;;5049830;28;20174;-67
2023/07/06 07:56:21;;;;;;;1.70;0.70;;;18.60;99.90;;;;;;5035559;28;20224;-68
2023/07/06 07:58:48;;;;;;;1.17;0.80;;;18.60;99.90;;;;;;5035005;28;20178;-68
2023/07/06 08:01:24;;;;;;;1.55;0.80;;;18.70;99.90;;;;;;5029663;28;20297;-66
2023/07/06 08:03:52;;;;;;;1.38;0.98;;;18.70;99.90;;;;;;5033137;28;20178;-67
2023/07/06 08:06:18;;;;;;;3.15;0.80;;;18.80;99.90;;;;;;5031315;28;20185;-66
2023/07/06 08:08:44;;;;;;;2.10;0.80;;;18.80;99.90;;;;;;5035003;28;20197;-66
2023/07/06 08:11:14;;;;;;;2.80;0.90;;;18.90;99.90;;;;;;5033158;28;20174;-67
2023/07/06 08:13:40;;;;;;;0.70;0.63;;;19.00;99.90;;;;;;5051599;28;20197;-67
2023/07/06 08:16:08;;;;;;;1.65;0.70;;;19.00;99.90;;;;;;5034933;28;20173;-65
2023/07/06 08:18:34;;;;;;;1.27;0.80;;;19.10;99.90;;;;;;5034388;28;20198;-67
2023/07/06 08:21:01;;;;;;;1.23;0.90;;;19.20;99.90;;;;;;5035177;28;20189;-67
2023/07/06 08:23:31;;;;;;;1.05;0.68;;;19.30;99.90;;;;;;5029582;28;20209;-67
2023/07/06 08:25:57;;;;;;;1.02;0.80;;;19.30;99.90;;;;;;5030423;28;20188;-67
2023/07/06 08:28:31;;;;;;;2.30;0.80;;;19.40;99.90;;;;;;5039191;28;20267;-66
2023/07/06 08:31:02;;;;;;;1.45;0.70;;;19.40;99.90;;;;;;5034765;28;20248;-67
2023/07/06 08:33:37;;;;;;;1.23;0.80;;;19.50;99.90;;;;;;5034490;28;20209;-66
2023/07/06 08:36:04;;;;;;;1.40;0.70;;;19.60;99.90;;;;;;5034211;28;20265;-67
2023/07/06 08:38:31;;;;;;;1.13;0.70;;;19.60;99.90;;;;;;5051305;28;20265;-67
2023/07/06 08:41:05;;;;;;;1.80;0.90;;;19.70;99.90;;;;;;5031167;28;20256;-67
2023/07/06 08:43:32;;;;;;;1.88;0.82;;;19.70;99.90;;;;;;5049974;28;20178;-68
2023/07/06 08:46:04;;;;;;;2.05;0.70;;;19.80;99.90;;;;;;5037837;28;20241;-69
2023/07/06 08:48:33;;;;;;;2.17;0.82;;;19.80;99.90;;;;;;5020680;28;20190;-67
2023/07/06 08:51:10;;;;;;;1.70;0.80;;;19.90;99.90;;;;;;5039970;28;20208;-67
2023/07/06 08:53:37;;;;;;;1.10;0.57;;;20.00;99.90;;;;;;5030602;28;20185;-66
2023/07/06 08:56:09;;;;;;;1.15;0.70;;;20.00;99.90;;;;;;5033661;28;20198;-67
2023/07/06 08:58:41;;;;;;;1.70;0.70;;;20.10;99.90;;;;;;5033181;28;20170;-67
2023/07/06 09:01:13;;;;;;;1.30;0.60;;;20.10;99.90;;;;;;5021915;28;20346;-67
2023/07/06 09:03:46;;;;;;;0.70;0.60;;;20.20;99.90;;;;;;5041130;28;20181;-67
2023/07/06 09:06:18;;;;;;;0.73;0.70;;;20.20;99.90;;;;;;5047633;28;20254;-66
2023/07/06 09:08:50;;;;;;;2.78;0.80;;;20.30;99.90;;;;;;5017411;28;20190;-67
2023/07/06 09:11:22;;;;;;;1.77;0.70;;;20.40;99.90;;;;;;5034061;28;20201;-68
2023/07/06 09:13:57;;;;;;;1.23;0.60;;;20.50;99.90;;;;;;5034440;28;20177;-67
2023/07/06 09:16:25;;;;;;;1.63;0.73;;;20.60;99.90;;;;;;5034235;28;20208;-68
2023/07/06 09:18:53;;;;;;;1.67;0.70;;;20.60;99.90;;;;;;5034382;28;20185;-68
2023/07/06 09:21:26;;;;;;;1.00;0.70;;;20.70;99.90;;;;;;5034316;28;20202;-67
2023/07/06 09:23:52;;;;;;;0.68;0.60;;;20.80;99.90;;;;;;5033434;28;20178;-68
2023/07/06 09:26:33;;;;;;;1.15;0.70;;;20.90;99.90;;;;;;5034208;28;20182;-68
2023/07/06 09:29:12;;;;;;;1.35;0.60;;;21.00;99.90;;;;;;5033960;28;20351;-67
2023/07/06 09:31:38;;;;;;;0.90;0.55;;;21.10;99.90;;;;;;5032930;28;20185;-67
2023/07/06 09:34:25;;;;;;;0.95;0.50;;;21.20;99.90;;;;;;5033676;28;20185;-63
2023/07/06 09:36:53;;;;;;;1.17;0.60;;;21.30;99.90;;;;;;5033601;28;20170;-67
2023/07/06 09:39:19;;;;;;;0.75;0.60;;;21.40;99.90;;;;;;5037735;28;20181;-67
2023/07/06 09:41:46;;;;;;;1.15;0.70;;;21.50;99.90;;;;;;5042398;28;20186;-68
2023/07/06 09:44:34;;;;;;;0.80;0.63;;;21.60;99.90;;;;;;5053233;28;20193;-68
2023/07/06 09:47:08;;;;;;;0.90;0.60;;;21.70;99.50;;;;;;5037231;28;20167;-68
2023/07/06 09:49:47;;;;;;;0.80;0.68;;;21.90;99.90;;;;;;5046101;28;20232;-69
2023/07/06 09:52:18;;;;;;;1.10;0.70;;;22.00;99.90;;;;;;5029253;28;20175;-68
2023/07/06 09:54:54;;;;;;;0.70;0.60;;;22.20;99.90;;;;;;5036201;28;20178;-67
2023/07/06 09:57:23;;;;;;;1.95;0.80;;;22.30;99.90;;;;;;5039062;28;20215;-67
2023/07/06 09:59:52;;;;;;;0.80;0.60;;;22.50;99.80;;;;;;5037376;28;20204;-67
2023/07/06 10:02:26;;;;;;;1.17;0.55;;;22.60;99.80;;;;;;5049857;28;20194;-67
2023/07/06 10:05:10;;;;;;;1.98;0.70;;;22.70;98.80;;;;;;5035184;28;20228;-66
2023/07/06 10:08:11;;;;;;;0.85;0.52;;;22.80;97.80;;;;;;5053725;28;20213;-68
2023/07/06 10:11:05;;;;;;;0.77;0.47;;;22.90;98.00;;;;;;4994728;28;20297;-63
2023/07/06 10:13:40;;;;;;;2.70;0.68;;;22.90;97.60;;;;;;5043680;28;20317;-69
2023/07/06 10:16:18;;;;;;;2.95;0.70;;;23.00;98.60;;;;;;5036595;28;20193;-67
2023/07/06 10:18:52;;;;;;;0.90;0.50;;;23.10;97.20;;;;;;5033814;28;20209;-69
2023/07/06 10:21:36;;;;;;;0.47;0.40;;;23.10;97.10;;;;;;5047991;28;20202;-65
2023/07/06 10:24:33;;;;;;;0.80;0.60;;;23.20;96.80;;;;;;5025573;28;20178;-64
2023/07/06 10:27:02;;;;;;;0.38;0.32;;;23.30;96.50;;;;;;5039228;28;20589;-66
2023/07/06 10:29:42;;;;;;;0.77;0.52;;;23.40;97.30;;;;;;5037279;28;20233;-68
2023/07/06 10:32:13;;;;;;;0.60;0.50;;;23.50;96.00;;;;;;5045758;28;20233;-67
2023/07/06 10:34:55;;;;;;;0.77;0.57;;;23.50;96.60;;;;;;5028893;28;20789;-68
2023/07/06 10:37:24;;;;;;;0.70;0.40;;;23.50;95.60;;;;;;5036686;28;20208;-68
2023/07/06 10:39:58;;;;;;;0.73;0.60;;;23.50;96.30;;;;;;5036995;28;20220;-65
2023/07/06 10:42:31;;;;;;;0.90;0.70;;;23.50;94.80;;;;;;5041669;28;20205;-65
2023/07/06 10:45:02;;;;;;;0.70;0.50;;;23.50;94.60;;;;;;5033660;28;20194;-69
2023/07/06 10:47:40;;;;;;;2.00;0.90;;;23.50;94.80;;;;;;5036797;28;20228;-67
2023/07/06 10:50:08;;;;;;;1.20;0.50;;;23.50;94.30;;;;;;5045014;28;20209;-68
2023/07/06 10:52:42;;;;;;;1.13;0.70;;;23.50;95.20;;;;;;5044707;28;20194;-67
2023/07/06 10:55:18;;;;;;;1.17;0.90;;;23.60;94.60;;;;;;5036134;28;20185;-65
2023/07/06 10:57:53;;;;;;;4.07;2.65;;;23.70;93.70;;;;;;5053471;28;20189;-68
2023/07/06 11:00:31;;;;;;;1.90;1.40;;;23.90;93.50;;;;;;5039617;28;20268;-66
2023/07/06 11:03:00;;;;;;;10.57;8.48;;;24.00;93.10;;;;;;5024462;28;20209;-67
2023/07/06 11:05:33;;;;;;;4.10;2.95;;;24.10;94.40;;;;;;5051542;28;20182;-67
2023/07/06 11:08:05;;;;;;;2.33;1.70;;;24.30;93.60;;;;;;5036100;28;20202;-67
2023/07/06 11:10:44;;;;;;;1.90;1.35;;;24.50;93.80;;;;;;5036568;28;20232;-69
2023/07/06 11:13:12;;;;;;;2.58;0.93;;;24.70;92.70;;;;;;5036566;28;20217;-70
2023/07/06 11:15:51;;;;;;;1.23;0.95;;;24.90;93.90;;;;;;5036374;28;20174;-67
2023/07/06 11:18:23;;;;;;;1.80;1.00;;;25.20;93.10;;;;;;5046026;28;20197;-69
2023/07/06 11:21:16;;;;;;;0.90;0.70;;;25.50;91.80;;;;;;5032918;28;20190;-68
2023/07/06 11:23:47;;;;;;;1.10;0.80;;;25.60;91.40;;;;;;5031798;28;20292;-66
2023/07/06 11:26:50;;;;;;;1.45;0.80;;;25.70;91.10;;;;;;5043389;28;20193;-69
2023/07/06 11:29:22;;;;;;;1.23;0.70;;;25.60;88.90;;;;;;5050592;28;20221;-68
2023/07/06 11:32:09;;;;;;;1.15;0.60;;;25.60;90.00;;;;;;5035899;28;20173;-69
2023/07/06 11:34:34;;;;;;;1.65;0.90;;;25.50;87.90;;;;;;5035707;28;20201;-69
2023/07/06 11:37:06;;;;;;;0.90;0.80;;;25.60;90.50;;;;;;5035575;28;20188;-69
2023/07/06 11:39:42;;;;;;;1.60;0.60;;;25.70;89.90;;;;;;5035463;28;20178;-67
2023/07/06 11:42:54;;;;;;;1.77;0.80;;;25.80;88.90;;;;;;5019255;28;20177;-68
2023/07/06 11:45:51;;;;;;;1.00;0.80;;;25.90;84.30;;;;;;5032646;28;20205;-68
2023/07/06 11:48:20;;;;;;;1.00;0.68;;;25.90;85.50;;;;;;5043055;28;20296;-68
2023/07/06 11:50:46;;;;;;;1.30;0.98;;;25.80;84.90;;;;;;5031613;28;20205;-68
2023/07/06 11:53:29;;;;;;;0.95;0.60;;;25.60;84.60;;;;;;5032945;28;20418;-69
2023/07/06 11:56:05;;;;;;;1.58;0.90;;;25.70;83.80;;;;;;5039885;28;20190;-68
2023/07/06 11:58:43;;;;;;;1.40;1.00;;;25.70;85.10;;;;;;5023928;28;20185;-69
2023/07/06 12:01:31;;;;;;;1.42;1.20;;;25.80;85.60;;;;;;5042143;28;20225;-69
2023/07/06 12:04:02;;;;;;;1.30;0.85;;;25.80;83.90;;;;;;5025853;28;20198;-69
2023/07/06 12:06:30;;;;;;;2.88;0.82;;;25.80;82.80;;;;;;5035065;28;20292;-69
2023/07/06 12:09:00;;;;;;;0.80;0.70;;;25.80;83.10;;;;;;5033212;28;20190;-69
2023/07/06 12:11:30;;;;;;;1.10;0.70;;;25.80;82.10;;;;;;5048563;28;20228;-69
2023/07/06 12:13:58;;;;;;;1.25;0.80;;;25.70;82.20;;;;;;5031280;28;20185;-66
2023/07/06 12:16:30;;;;;;;1.45;0.90;;;25.70;80.00;;;;;;5035276;28;20174;-69
2023/07/06 12:19:05;;;;;;;1.20;0.75;;;25.80;79.00;;;;;;5028086;28;20178;-69
2023/07/06 12:21:39;;;;;;;1.42;0.77;;;25.80;78.20;;;;;;5022588;28;20169;-69
2023/07/06 12:24:17;;;;;;;1.40;0.90;;;25.90;78.20;;;;;;5015672;28;20174;-69
2023/07/06 12:26:56;;;;;;;2.15;1.00;;;25.90;78.40;;;;;;5029819;28;20364;-69
2023/07/06 12:29:26;;;;;;;1.45;0.85;;;26.10;74.90;;;;;;5044135;28;20196;-69
2023/07/06 12:31:58;;;;;;;1.10;0.90;;;26.20;78.60;;;;;;5037831;28;20174;-70
2023/07/06 12:34:34;;;;;;;1.58;1.00;;;26.40;76.10;;;;;;5031130;28;20252;-68
2023/07/06 12:37:02;;;;;;;1.05;0.80;;;26.50;73.30;;;;;;5031669;28;20173;-66
2023/07/06 12:39:40;;;;;;;1.30;0.80;;;26.60;74.20;;;;;;5033928;28;20298;-69
2023/07/06 12:42:11;;;;;;;1.75;1.00;;;26.80;74.20;;;;;;5031392;28;20174;-68
2023/07/06 12:44:38;;;;;;;1.65;0.80;;;26.90;75.40;;;;;;5047130;28;20237;-68
2023/07/06 12:47:37;;;;;;;1.33;0.80;;;27.00;74.30;;;;;;5021925;28;20246;-69
2023/07/06 12:50:09;;;;;;;1.25;0.82;;;27.10;70.00;;;;;;5011085;28;20234;-64
2023/07/06 12:52:39;;;;;;;1.63;0.80;;;27.20;71.20;;;;;;5048242;28;20177;-64
2023/07/06 12:55:17;;;;;;;1.58;0.80;;;27.10;70.20;;;;;;5030893;28;20206;-65
2023/07/06 12:57:43;;;;;;;0.95;0.82;;;27.10;69.30;;;;;;5041199;28;20201;-64
2023/07/06 13:00:21;;;;;;;1.10;0.80;;;27.10;71.30;;;;;;5030673;28;20194;-65
2023/07/06 13:02:56;;;;;;;1.08;0.85;;;27.20;69.70;;;;;;5029638;28;20237;-65
2023/07/06 13:05:28;;;;;;;1.52;1.10;;;27.40;70.70;;;;;;5050762;28;20206;-66
2023/07/06 13:08:03;;;;;;;2.03;1.17;;;27.60;71.90;;;;;;5034248;28;20312;-65